Terminal Aerodrome Forecast
Issued by NWS

Home | Current Version | Previous Version | Text Only | Print | Product List | Glossary On
Versions: 1 2 3 4 5 6 7 8 9 10 11 12 13
000
FTUS46 KHNX 202330
TAFBFL
TAF
KBFL 202330Z 2100/2124 09005KT P6SM SCT050 BKN080
     FM210800 VRB03KT 5SM BR SCT030 BKN050
      TEMPO 2110/2114 2SM BR BKN030=

USA.gov is the U.S. government's official web portal to all federal, state and local government web resources and services.